sensor_id;sensor_type;location;lat;lon;timestamp;pressure;altitude;pressure_sealevel;temperature;humidity
36932;BME280;22847;42.654;23.370;2022-08-19T00:00:16;94232.16;;;24.67;46.05
36932;BME280;22847;42.654;23.370;2022-08-19T00:02:42;94392.97;;;25.57;46.10
36932;BME280;22847;42.654;23.370;2022-08-19T00:05:10;94433.25;;;25.89;46.14
36932;BME280;22847;42.654;23.370;2022-08-19T00:07:36;94424.81;;;25.81;46.42
36932;BME280;22847;42.654;23.370;2022-08-19T00:10:04;94436.81;;;25.78;47.04
36932;BME280;22847;42.654;23.370;2022-08-19T00:12:30;94370.31;;;25.60;46.94
36932;BME280;22847;42.654;23.370;2022-08-19T00:14:56;94215.16;;;24.56;47.34
36932;BME280;22847;42.654;23.370;2022-08-19T00:17:21;94400.28;;;25.50;47.74
36932;BME280;22847;42.654;23.370;2022-08-19T00:19:47;94423.47;;;25.78;46.99
36932;BME280;22847;42.654;23.370;2022-08-19T00:22:12;94295.22;;;25.06;46.62
36932;BME280;22847;42.654;23.370;2022-08-19T00:24:38;94246.72;;;24.76;47.02
36932;BME280;22847;42.654;23.370;2022-08-19T00:27:04;94458.03;;;25.85;47.45
36932;BME280;22847;42.654;23.370;2022-08-19T00:29:31;94425.81;;;25.74;47.26
36932;BME280;22847;42.654;23.370;2022-08-19T00:31:57;94411.47;;;25.81;47.56
36932;BME280;22847;42.654;23.370;2022-08-19T00:34:24;94383.94;;;25.47;47.82
36932;BME280;22847;42.654;23.370;2022-08-19T00:36:50;94426.88;;;25.73;47.16
36932;BME280;22847;42.654;23.370;2022-08-19T00:39:16;94436.41;;;25.86;47.86
36932;BME280;22847;42.654;23.370;2022-08-19T00:41:43;94243.75;;;24.44;48.23
36932;BME280;22847;42.654;23.370;2022-08-19T00:44:18;94236.81;;;24.43;47.88
36932;BME280;22847;42.654;23.370;2022-08-19T00:46:47;94408.00;;;25.30;48.34
36932;BME280;22847;42.654;23.370;2022-08-19T00:49:20;94381.75;;;25.27;48.66
36932;BME280;22847;42.654;23.370;2022-08-19T00:51:48;94415.72;;;25.31;48.56
36932;BME280;22847;42.654;23.370;2022-08-19T00:54:16;94425.03;;;25.29;48.50
36932;BME280;22847;42.654;23.370;2022-08-19T00:56:43;94387.34;;;25.25;48.72
36932;BME280;22847;42.654;23.370;2022-08-19T00:59:10;94407.81;;;25.37;48.70
36932;BME280;22847;42.654;23.370;2022-08-19T01:01:40;94418.72;;;25.18;48.37
36932;BME280;22847;42.654;23.370;2022-08-19T01:04:06;94237.25;;;24.23;48.44
36932;BME280;22847;42.654;23.370;2022-08-19T01:06:33;94416.81;;;25.30;48.46
36932;BME280;22847;42.654;23.370;2022-08-19T01:09:00;94458.53;;;25.53;48.01
36932;BME280;22847;42.654;23.370;2022-08-19T01:11:31;94278.75;;;24.64;47.65
36932;BME280;22847;42.654;23.370;2022-08-19T01:13:58;94345.69;;;25.08;47.68
36932;BME280;22847;42.654;23.370;2022-08-19T01:16:25;94428.44;;;25.41;47.77
36932;BME280;22847;42.654;23.370;2022-08-19T01:18:51;94233.31;;;24.26;47.70
36932;BME280;22847;42.654;23.370;2022-08-19T01:23:54;94382.53;;;24.02;50.06
36932;BME280;22847;42.654;23.370;2022-08-19T01:26:22;94274.03;;;23.23;50.72
36932;BME280;22847;42.654;23.370;2022-08-19T01:28:51;94274.56;;;23.02;50.74
36932;BME280;22847;42.654;23.370;2022-08-19T01:31:21;94227.97;;;23.11;50.25
36932;BME280;22847;42.654;23.370;2022-08-19T01:33:48;94371.19;;;24.19;49.45
36932;BME280;22847;42.654;23.370;2022-08-19T01:36:23;94426.09;;;24.71;50.07
36932;BME280;22847;42.654;23.370;2022-08-19T01:38:51;94424.41;;;24.94;49.53
36932;BME280;22847;42.654;23.370;2022-08-19T01:41:17;94431.38;;;24.83;48.79
36932;BME280;22847;42.654;23.370;2022-08-19T01:43:43;94427.56;;;24.79;48.96
36932;BME280;22847;42.654;23.370;2022-08-19T01:46:09;94418.53;;;25.08;48.27
36932;BME280;22847;42.654;23.370;2022-08-19T01:48:40;94419.94;;;24.31;49.56
36932;BME280;22847;42.654;23.370;2022-08-19T01:51:08;94442.28;;;24.41;49.68
36932;BME280;22847;42.654;23.370;2022-08-19T01:53:34;94382.31;;;24.04;50.47
36932;BME280;22847;42.654;23.370;2022-08-19T01:56:00;94371.88;;;24.02;50.65
36932;BME280;22847;42.654;23.370;2022-08-19T01:58:38;94449.84;;;24.21;51.23
36932;BME280;22847;42.654;23.370;2022-08-19T02:01:06;94404.63;;;24.15;51.13
36932;BME280;22847;42.654;23.370;2022-08-19T02:03:32;94419.25;;;24.24;51.45
36932;BME280;22847;42.654;23.370;2022-08-19T02:05:59;94366.34;;;23.92;51.03
36932;BME280;22847;42.654;23.370;2022-08-19T02:08:29;94417.19;;;24.26;50.94
36932;BME280;22847;42.654;23.370;2022-08-19T02:10:56;94308.03;;;23.68;51.15
36932;BME280;22847;42.654;23.370;2022-08-19T02:13:24;94414.34;;;24.44;51.11
36932;BME280;22847;42.654;23.370;2022-08-19T02:15:50;94374.06;;;24.29;50.47
36932;BME280;22847;42.654;23.370;2022-08-19T02:18:16;94263.47;;;23.51;50.98
36932;BME280;22847;42.654;23.370;2022-08-19T02:20:43;94414.91;;;24.58;51.10
36932;BME280;22847;42.654;23.370;2022-08-19T02:23:09;94414.03;;;24.69;50.74
36932;BME280;22847;42.654;23.370;2022-08-19T02:25:35;94447.44;;;24.60;50.94
36932;BME280;22847;42.654;23.370;2022-08-19T02:28:01;94366.81;;;24.41;50.50
36932;BME280;22847;42.654;23.370;2022-08-19T02:30:27;94425.28;;;24.71;50.48
36932;BME280;22847;42.654;23.370;2022-08-19T02:32:53;94234.09;;;23.58;50.25
36932;BME280;22847;42.654;23.370;2022-08-19T02:35:18;94407.94;;;24.57;50.34
36932;BME280;22847;42.654;23.370;2022-08-19T02:37:44;94261.97;;;23.55;50.69
36932;BME280;22847;42.654;23.370;2022-08-19T02:40:29;94428.38;;;24.79;50.67
36932;BME280;22847;42.654;23.370;2022-08-19T02:42:55;94437.09;;;24.75;50.81
36932;BME280;22847;42.654;23.370;2022-08-19T02:45:21;94410.97;;;24.49;51.24
36932;BME280;22847;42.654;23.370;2022-08-19T02:47:47;94262.56;;;23.58;51.21
36932;BME280;22847;42.654;23.370;2022-08-19T02:50:12;94222.22;;;23.14;51.75
36932;BME280;22847;42.654;23.370;2022-08-19T02:52:38;94336.69;;;23.42;52.28
36932;BME280;22847;42.654;23.370;2022-08-19T02:55:05;94463.69;;;23.65;53.15
36932;BME280;22847;42.654;23.370;2022-08-19T02:57:31;94452.50;;;23.22;54.01
36932;BME280;22847;42.654;23.370;2022-08-19T02:59:57;94209.38;;;21.93;53.55
36932;BME280;22847;42.654;23.370;2022-08-19T03:02:23;94305.66;;;22.78;52.82
36932;BME280;22847;42.654;23.370;2022-08-19T03:04:48;94249.25;;;22.76;52.15
36932;BME280;22847;42.654;23.370;2022-08-19T03:07:15;94396.75;;;23.38;52.28
36932;BME280;22847;42.654;23.370;2022-08-19T03:09:41;94437.81;;;23.42;52.83
36932;BME280;22847;42.654;23.370;2022-08-19T03:12:07;94442.53;;;23.29;53.62
36932;BME280;22847;42.654;23.370;2022-08-19T03:14:33;94092.47;;;20.92;53.57
36932;BME280;22847;42.654;23.370;2022-08-19T03:16:59;94231.13;;;22.02;53.66
36932;BME280;22847;42.654;23.370;2022-08-19T03:19:25;94418.03;;;23.38;53.77
36932;BME280;22847;42.654;23.370;2022-08-19T03:21:51;94436.16;;;23.60;53.57
36932;BME280;22847;42.654;23.370;2022-08-19T03:24:18;94268.16;;;22.68;52.91
36932;BME280;22847;42.654;23.370;2022-08-19T03:26:47;94425.88;;;23.75;53.13
36932;BME280;22847;42.654;23.370;2022-08-19T03:29:13;94436.88;;;23.67;52.96
36932;BME280;22847;42.654;23.370;2022-08-19T03:31:41;94376.78;;;23.47;52.76
36932;BME280;22847;42.654;23.370;2022-08-19T03:34:09;94275.59;;;22.78;53.00
36932;BME280;22847;42.654;23.370;2022-08-19T03:36:37;94380.53;;;23.28;53.15
36932;BME280;22847;42.654;23.370;2022-08-19T03:39:02;94403.97;;;23.49;53.04
36932;BME280;22847;42.654;23.370;2022-08-19T03:41:35;94250.81;;;22.65;52.66
36932;BME280;22847;42.654;23.370;2022-08-19T03:44:02;94265.88;;;22.72;52.44
36932;BME280;22847;42.654;23.370;2022-08-19T03:46:31;94394.63;;;23.59;52.39
36932;BME280;22847;42.654;23.370;2022-08-19T03:48:59;94418.44;;;23.65;52.37
36932;BME280;22847;42.654;23.370;2022-08-19T03:51:28;94474.84;;;23.85;51.93
36932;BME280;22847;42.654;23.370;2022-08-19T03:53:56;94375.59;;;23.43;52.16
36932;BME280;22847;42.654;23.370;2022-08-19T03:56:22;94438.47;;;24.02;51.04
36932;BME280;22847;42.654;23.370;2022-08-19T03:58:48;94456.91;;;24.27;51.18
36932;BME280;22847;42.654;23.370;2022-08-19T04:01:17;94375.38;;;23.80;50.69
36932;BME280;22847;42.654;23.370;2022-08-19T04:03:45;94499.06;;;24.42;50.93
36932;BME280;22847;42.654;23.370;2022-08-19T04:06:21;94465.44;;;24.53;50.36
36932;BME280;22847;42.654;23.370;2022-08-19T04:08:48;94454.00;;;24.40;50.57
36932;BME280;22847;42.654;23.370;2022-08-19T04:11:20;94278.88;;;23.26;51.37
36932;BME280;22847;42.654;23.370;2022-08-19T04:13:46;94286.88;;;23.49;50.52
36932;BME280;22847;42.654;23.370;2022-08-19T04:16:12;94436.94;;;24.41;51.03
36932;BME280;22847;42.654;23.370;2022-08-19T04:18:39;94270.53;;;23.34;51.46
36932;BME280;22847;42.654;23.370;2022-08-19T04:21:06;94445.75;;;24.54;51.06
36932;BME280;22847;42.654;23.370;2022-08-19T04:23:33;94511.41;;;24.83;51.33
36932;BME280;22847;42.654;23.370;2022-08-19T04:25:59;94486.47;;;24.77;50.74
36932;BME280;22847;42.654;23.370;2022-08-19T04:28:25;94475.44;;;24.85;50.82
36932;BME280;22847;42.654;23.370;2022-08-19T04:30:53;94447.22;;;25.01;49.19
36932;BME280;22847;42.654;23.370;2022-08-19T04:33:21;94474.06;;;26.01;46.66
36932;BME280;22847;42.654;23.370;2022-08-19T04:35:49;94310.09;;;26.83;42.49
36932;BME280;22847;42.654;23.370;2022-08-19T04:38:17;94343.66;;;28.43;38.92
36932;BME280;22847;42.654;23.370;2022-08-19T04:40:48;94471.28;;;29.58;38.27
36932;BME280;22847;42.654;23.370;2022-08-19T04:43:34;94467.03;;;28.43;39.74
36932;BME280;22847;42.654;23.370;2022-08-19T04:46:11;94501.31;;;28.73;39.78
36932;BME280;22847;42.654;23.370;2022-08-19T04:48:38;94467.41;;;28.62;39.75
36932;BME280;22847;42.654;23.370;2022-08-19T04:51:09;94426.28;;;28.41;39.99
36932;BME280;22847;42.654;23.370;2022-08-19T04:53:37;94458.13;;;28.32;40.34
36932;BME280;22847;42.654;23.370;2022-08-19T04:56:11;94165.72;;;25.59;42.43
36932;BME280;22847;42.654;23.370;2022-08-19T04:58:38;94323.59;;;27.25;41.05
36932;BME280;22847;42.654;23.370;2022-08-19T05:01:04;94507.25;;;27.69;42.31
36932;BME280;22847;42.654;23.370;2022-08-19T05:03:30;94303.47;;;26.15;43.31
36932;BME280;22847;42.654;23.370;2022-08-19T05:06:07;94371.19;;;27.18;42.29
36932;BME280;22847;42.654;23.370;2022-08-19T05:08:35;94468.53;;;27.87;42.08
36932;BME280;22847;42.654;23.370;2022-08-19T05:11:06;94444.28;;;28.46;40.65
36932;BME280;22847;42.654;23.370;2022-08-19T05:13:32;94436.31;;;28.66;39.95
36932;BME280;22847;42.654;23.370;2022-08-19T05:15:58;94510.69;;;29.33;39.78
36932;BME280;22847;42.654;23.370;2022-08-19T05:18:24;94482.00;;;29.48;39.32
36932;BME280;22847;42.654;23.370;2022-08-19T05:21:12;94484.13;;;29.41;38.87
36932;BME280;22847;42.654;23.370;2022-08-19T05:23:56;94482.50;;;29.35;39.25
36932;BME280;22847;42.654;23.370;2022-08-19T05:26:23;94433.28;;;29.19;39.33
36932;BME280;22847;42.654;23.370;2022-08-19T05:28:48;94425.75;;;29.16;39.46
36932;BME280;22847;42.654;23.370;2022-08-19T05:31:14;94518.38;;;29.91;38.10
36932;BME280;22847;42.654;23.370;2022-08-19T05:33:39;94454.91;;;29.90;38.41
36932;BME280;22847;42.654;23.370;2022-08-19T05:36:05;94467.53;;;30.15;37.49
36932;BME280;22847;42.654;23.370;2022-08-19T05:38:33;94447.59;;;30.31;37.90
36932;BME280;22847;42.654;23.370;2022-08-19T05:40:58;94345.50;;;29.60;38.07
36932;BME280;22847;42.654;23.370;2022-08-19T05:43:24;94320.75;;;29.74;37.37
36932;BME280;22847;42.654;23.370;2022-08-19T05:45:50;94382.28;;;30.05;37.06
36932;BME280;22847;42.654;23.370;2022-08-19T05:48:16;94413.16;;;30.28;36.47
36932;BME280;22847;42.654;23.370;2022-08-19T05:50:44;94440.53;;;30.66;36.62
36932;BME280;22847;42.654;23.370;2022-08-19T05:53:10;94270.50;;;29.59;36.75
36932;BME280;22847;42.654;23.370;2022-08-19T05:55:35;94482.91;;;31.19;36.83
36932;BME280;22847;42.654;23.370;2022-08-19T05:58:03;94477.50;;;31.24;35.99
36932;BME280;22847;42.654;23.370;2022-08-19T06:00:29;94449.97;;;31.27;35.87
36932;BME280;22847;42.654;23.370;2022-08-19T06:02:56;94484.59;;;31.59;35.62
36932;BME280;22847;42.654;23.370;2022-08-19T06:05:24;94489.47;;;31.52;35.98
36932;BME280;22847;42.654;23.370;2022-08-19T06:07:50;94430.81;;;31.34;35.21
36932;BME280;22847;42.654;23.370;2022-08-19T06:10:15;94480.38;;;31.82;35.16
36932;BME280;22847;42.654;23.370;2022-08-19T06:12:41;94462.84;;;31.79;35.13
36932;BME280;22847;42.654;23.370;2022-08-19T06:15:11;94506.69;;;32.00;34.78
36932;BME280;22847;42.654;23.370;2022-08-19T06:17:37;94485.06;;;32.10;34.22
36932;BME280;22847;42.654;23.370;2022-08-19T06:20:08;94493.34;;;31.31;36.22
36932;BME280;22847;42.654;23.370;2022-08-19T06:22:39;94487.44;;;31.29;36.22
36932;BME280;22847;42.654;23.370;2022-08-19T06:25:05;94481.84;;;31.64;36.04
36932;BME280;22847;42.654;23.370;2022-08-19T06:30:15;94493.53;;;31.88;36.00
36932;BME280;22847;42.654;23.370;2022-08-19T06:32:41;94478.13;;;31.94;34.50
36932;BME280;22847;42.654;23.370;2022-08-19T06:35:07;94337.44;;;31.14;34.32
36932;BME280;22847;42.654;23.370;2022-08-19T06:37:32;94343.16;;;31.41;34.34
36932;BME280;22847;42.654;23.370;2022-08-19T06:39:58;94489.72;;;32.57;33.95
36932;BME280;22847;42.654;23.370;2022-08-19T06:42:24;94487.75;;;32.39;34.38
36932;BME280;22847;42.654;23.370;2022-08-19T06:44:49;94344.50;;;31.39;34.07
36932;BME280;22847;42.654;23.370;2022-08-19T06:47:17;94476.84;;;32.49;33.74
36932;BME280;22847;42.654;23.370;2022-08-19T06:49:43;94481.34;;;32.30;33.74
36932;BME280;22847;42.654;23.370;2022-08-19T06:52:09;94467.41;;;31.84;34.02
36932;BME280;22847;42.654;23.370;2022-08-19T06:54:37;94488.22;;;32.46;33.84
36932;BME280;22847;42.654;23.370;2022-08-19T06:57:04;94387.25;;;32.23;33.46
36932;BME280;22847;42.654;23.370;2022-08-19T06:59:32;94462.66;;;32.91;32.77
36932;BME280;22847;42.654;23.370;2022-08-19T07:02:01;94503.69;;;33.17;33.16
36932;BME280;22847;42.654;23.370;2022-08-19T07:04:29;94480.06;;;33.28;33.14
36932;BME280;22847;42.654;23.370;2022-08-19T07:07:05;94341.00;;;32.78;32.94
36932;BME280;22847;42.654;23.370;2022-08-19T07:09:34;94485.31;;;33.56;33.11
36932;BME280;22847;42.654;23.370;2022-08-19T07:12:03;94461.25;;;33.17;32.81
36932;BME280;22847;42.654;23.370;2022-08-19T07:14:29;94489.59;;;32.44;34.00
36932;BME280;22847;42.654;23.370;2022-08-19T07:16:56;94387.16;;;32.00;33.94
36932;BME280;22847;42.654;23.370;2022-08-19T07:19:24;94524.84;;;32.86;33.54
36932;BME280;22847;42.654;23.370;2022-08-19T07:21:52;94459.41;;;33.13;32.77
36932;BME280;22847;42.654;23.370;2022-08-19T07:24:19;94420.31;;;32.58;33.16
36932;BME280;22847;42.654;23.370;2022-08-19T07:26:45;94498.84;;;32.61;33.71
36932;BME280;22847;42.654;23.370;2022-08-19T07:29:11;94502.25;;;32.77;33.59
36932;BME280;22847;42.654;23.370;2022-08-19T07:31:37;94495.41;;;33.08;33.15
36932;BME280;22847;42.654;23.370;2022-08-19T07:34:05;94489.72;;;33.52;32.45
36932;BME280;22847;42.654;23.370;2022-08-19T07:36:33;94496.38;;;32.94;33.14
36932;BME280;22847;42.654;23.370;2022-08-19T07:39:03;94330.75;;;32.03;33.05
36932;BME280;22847;42.654;23.370;2022-08-19T07:41:30;94333.25;;;32.71;32.79
36932;BME280;22847;42.654;23.370;2022-08-19T07:43:58;94481.03;;;33.93;31.53
36932;BME280;22847;42.654;23.370;2022-08-19T07:46:32;94504.03;;;34.28;31.13
36932;BME280;22847;42.654;23.370;2022-08-19T07:48:58;94492.44;;;34.55;30.56
36932;BME280;22847;42.654;23.370;2022-08-19T07:51:26;94490.31;;;34.38;30.31
36932;BME280;22847;42.654;23.370;2022-08-19T07:53:52;94456.78;;;34.20;30.61
36932;BME280;22847;42.654;23.370;2022-08-19T07:56:19;94494.72;;;34.66;30.58
36932;BME280;22847;42.654;23.370;2022-08-19T07:58:47;94353.34;;;34.04;30.24
36932;BME280;22847;42.654;23.370;2022-08-19T08:01:20;94485.56;;;35.44;30.09
36932;BME280;22847;42.654;23.370;2022-08-19T08:03:47;94428.38;;;35.05;29.76
36932;BME280;22847;42.654;23.370;2022-08-19T08:06:31;94486.13;;;35.82;29.67
36932;BME280;22847;42.654;23.370;2022-08-19T08:09:19;94486.06;;;35.73;29.13
36932;BME280;22847;42.654;23.370;2022-08-19T08:11:59;94314.59;;;33.63;29.81
36932;BME280;22847;42.654;23.370;2022-08-19T08:14:31;94458.69;;;34.20;30.82
36932;BME280;22847;42.654;23.370;2022-08-19T08:16:58;94477.84;;;34.23;30.79
36932;BME280;22847;42.654;23.370;2022-08-19T08:19:25;94486.19;;;34.27;30.39
36932;BME280;22847;42.654;23.370;2022-08-19T08:21:51;94462.47;;;34.51;30.37
36932;BME280;22847;42.654;23.370;2022-08-19T08:24:18;94452.06;;;34.85;30.17
36932;BME280;22847;42.654;23.370;2022-08-19T08:26:44;94314.81;;;34.26;29.99
36932;BME280;22847;42.654;23.370;2022-08-19T08:29:10;94278.00;;;34.12;29.93
36932;BME280;22847;42.654;23.370;2022-08-19T08:31:37;94455.72;;;34.81;29.83
36932;BME280;22847;42.654;23.370;2022-08-19T08:34:02;94455.38;;;34.82;30.18
36932;BME280;22847;42.654;23.370;2022-08-19T08:36:28;94431.69;;;35.15;30.11
36932;BME280;22847;42.654;23.370;2022-08-19T08:38:53;94489.38;;;35.70;29.43
36932;BME280;22847;42.654;23.370;2022-08-19T08:41:37;94334.88;;;34.80;29.38
36932;BME280;22847;42.654;23.370;2022-08-19T08:44:06;94427.28;;;34.92;29.17
36932;BME280;22847;42.654;23.370;2022-08-19T08:46:43;94457.78;;;35.39;29.40
36932;BME280;22847;42.654;23.370;2022-08-19T08:52:33;94452.06;;;35.62;28.58
36932;BME280;22847;42.654;23.370;2022-08-19T08:55:10;94375.94;;;35.23;28.25
36932;BME280;22847;42.654;23.370;2022-08-19T09:00:08;94448.38;;;36.16;25.73
36932;BME280;22847;42.654;23.370;2022-08-19T09:02:35;94439.69;;;36.59;25.12
36932;BME280;22847;42.654;23.370;2022-08-19T09:05:00;94435.09;;;36.59;25.97
36932;BME280;22847;42.654;23.370;2022-08-19T09:08:02;94440.31;;;36.87;25.76
36932;BME280;22847;42.654;23.370;2022-08-19T09:10:44;94453.22;;;36.81;25.87
36932;BME280;22847;42.654;23.370;2022-08-19T09:16:02;94418.94;;;36.63;24.73
36932;BME280;22847;42.654;23.370;2022-08-19T09:21:10;94424.59;;;37.23;24.54
36932;BME280;22847;42.654;23.370;2022-08-19T09:23:36;94428.47;;;36.83;23.98
36932;BME280;22847;42.654;23.370;2022-08-19T09:26:07;94159.19;;;35.18;24.00
36932;BME280;22847;42.654;23.370;2022-08-19T09:28:33;94387.53;;;36.48;23.86
36932;BME280;22847;42.654;23.370;2022-08-19T09:30:58;94428.75;;;36.42;23.76
36932;BME280;22847;42.654;23.370;2022-08-19T09:33:24;94258.56;;;35.45;23.51
36932;BME280;22847;42.654;23.370;2022-08-19T09:35:49;94402.53;;;36.46;22.91
36932;BME280;22847;42.654;23.370;2022-08-19T09:38:14;94422.09;;;36.87;22.66
36932;BME280;22847;42.654;23.370;2022-08-19T09:40:40;94399.38;;;36.92;22.81
36932;BME280;22847;42.654;23.370;2022-08-19T09:43:05;94395.13;;;36.60;22.65
36932;BME280;22847;42.654;23.370;2022-08-19T09:45:32;94416.91;;;36.69;22.51
36932;BME280;22847;42.654;23.370;2022-08-19T09:47:58;94404.31;;;36.50;22.56
36932;BME280;22847;42.654;23.370;2022-08-19T09:50:23;94363.50;;;36.64;22.35
36932;BME280;22847;42.654;23.370;2022-08-19T09:52:49;94279.94;;;35.99;21.52
36932;BME280;22847;42.654;23.370;2022-08-19T09:55:15;94389.72;;;36.69;22.31
36932;BME280;22847;42.654;23.370;2022-08-19T09:57:41;94401.72;;;36.76;21.22
36932;BME280;22847;42.654;23.370;2022-08-19T10:00:08;94238.13;;;36.09;22.04
36932;BME280;22847;42.654;23.370;2022-08-19T10:02:35;94332.84;;;36.81;21.93
36932;BME280;22847;42.654;23.370;2022-08-19T10:05:01;94415.28;;;37.16;21.84
36932;BME280;22847;42.654;23.370;2022-08-19T10:07:45;94366.56;;;36.40;21.93
36932;BME280;22847;42.654;23.370;2022-08-19T10:10:10;94250.16;;;36.16;22.58
36932;BME280;22847;42.654;23.370;2022-08-19T10:12:36;94385.66;;;36.97;22.42
36932;BME280;22847;42.654;23.370;2022-08-19T10:15:03;94386.66;;;36.61;22.21
36932;BME280;22847;42.654;23.370;2022-08-19T10:17:29;94232.31;;;35.62;22.65
36932;BME280;22847;42.654;23.370;2022-08-19T10:19:55;94399.38;;;36.83;22.17
36932;BME280;22847;42.654;23.370;2022-08-19T10:22:21;94223.28;;;35.98;22.08
36932;BME280;22847;42.654;23.370;2022-08-19T10:24:46;94374.56;;;36.45;22.64
36932;BME280;22847;42.654;23.370;2022-08-19T10:27:12;94376.13;;;36.07;23.02
36932;BME280;22847;42.654;23.370;2022-08-19T10:29:39;94332.75;;;36.15;23.29
36932;BME280;22847;42.654;23.370;2022-08-19T10:32:07;94247.13;;;35.78;23.67
36932;BME280;22847;42.654;23.370;2022-08-19T10:34:35;94365.59;;;36.76;23.45
36932;BME280;22847;42.654;23.370;2022-08-19T10:37:02;94340.66;;;36.34;22.64
36932;BME280;22847;42.654;23.370;2022-08-19T10:39:32;94374.47;;;36.59;23.59
36932;BME280;22847;42.654;23.370;2022-08-19T10:41:59;94347.50;;;36.62;23.07
36932;BME280;22847;42.654;23.370;2022-08-19T10:44:25;94219.66;;;35.80;23.38
36932;BME280;22847;42.654;23.370;2022-08-19T10:46:51;94350.09;;;36.85;22.69
36932;BME280;22847;42.654;23.370;2022-08-19T10:49:17;94348.84;;;36.82;23.07
36932;BME280;22847;42.654;23.370;2022-08-19T10:51:44;94365.56;;;36.67;22.89
36932;BME280;22847;42.654;23.370;2022-08-19T10:54:28;94208.66;;;35.54;22.81
36932;BME280;22847;42.654;23.370;2022-08-19T10:57:14;94361.22;;;36.27;22.84
36932;BME280;22847;42.654;23.370;2022-08-19T10:59:40;94370.84;;;36.02;22.88
36932;BME280;22847;42.654;23.370;2022-08-19T11:02:08;94350.22;;;36.01;23.11
36932;BME280;22847;42.654;23.370;2022-08-19T11:04:35;94268.06;;;35.33;22.66
36932;BME280;22847;42.654;23.370;2022-08-19T11:07:02;94390.19;;;36.09;22.85
36932;BME280;22847;42.654;23.370;2022-08-19T11:09:28;94368.66;;;36.12;23.30
36932;BME280;22847;42.654;23.370;2022-08-19T11:11:53;94317.09;;;36.21;22.88
36932;BME280;22847;42.654;23.370;2022-08-19T11:14:20;94207.25;;;35.57;22.44
36932;BME280;22847;42.654;23.370;2022-08-19T11:16:49;94347.03;;;36.60;22.76
36932;BME280;22847;42.654;23.370;2022-08-19T11:19:16;94336.34;;;36.73;23.07
36932;BME280;22847;42.654;23.370;2022-08-19T11:21:46;94205.63;;;35.78;22.99
36932;BME280;22847;42.654;23.370;2022-08-19T11:24:17;94206.81;;;35.32;23.22
36932;BME280;22847;42.654;23.370;2022-08-19T11:26:45;94333.94;;;36.32;23.73
36932;BME280;22847;42.654;23.370;2022-08-19T11:29:13;94328.13;;;36.16;24.23
36932;BME280;22847;42.654;23.370;2022-08-19T11:31:41;94305.97;;;36.00;24.26
36932;BME280;22847;42.654;23.370;2022-08-19T11:34:10;94321.34;;;36.05;24.32
36932;BME280;22847;42.654;23.370;2022-08-19T11:36:37;94332.03;;;36.01;23.84
36932;BME280;22847;42.654;23.370;2022-08-19T11:39:06;94316.28;;;36.12;23.11
36932;BME280;22847;42.654;23.370;2022-08-19T11:41:31;94324.66;;;36.24;23.31
36932;BME280;22847;42.654;23.370;2022-08-19T11:43:57;94166.78;;;35.38;23.35
36932;BME280;22847;42.654;23.370;2022-08-19T11:46:25;94318.53;;;36.58;23.48
36932;BME280;22847;42.654;23.370;2022-08-19T11:48:51;94334.13;;;36.44;22.96
36932;BME280;22847;42.654;23.370;2022-08-19T11:51:20;94312.56;;;36.08;24.06
36932;BME280;22847;42.654;23.370;2022-08-19T11:53:46;94208.59;;;35.37;23.91
36932;BME280;22847;42.654;23.370;2022-08-19T11:56:12;94167.69;;;35.25;24.08
36932;BME280;22847;42.654;23.370;2022-08-19T11:58:38;94309.50;;;36.32;24.02
36932;BME280;22847;42.654;23.370;2022-08-19T12:01:14;94316.50;;;36.24;24.01
36932;BME280;22847;42.654;23.370;2022-08-19T12:03:45;94303.50;;;36.52;24.12
36932;BME280;22847;42.654;23.370;2022-08-19T12:06:17;94303.91;;;36.37;23.51
36932;BME280;22847;42.654;23.370;2022-08-19T12:08:44;94335.91;;;36.48;24.00
36932;BME280;22847;42.654;23.370;2022-08-19T12:11:11;94293.94;;;36.15;23.05
36932;BME280;22847;42.654;23.370;2022-08-19T12:13:37;94264.81;;;36.07;23.77
36932;BME280;22847;42.654;23.370;2022-08-19T12:16:24;94269.53;;;35.93;23.77
36932;BME280;22847;42.654;23.370;2022-08-19T12:18:50;94283.59;;;35.95;23.70
36932;BME280;22847;42.654;23.370;2022-08-19T12:21:19;94302.47;;;36.00;23.58
36932;BME280;22847;42.654;23.370;2022-08-19T12:23:46;94189.72;;;35.32;23.82
36932;BME280;22847;42.654;23.370;2022-08-19T12:26:12;94275.94;;;35.97;23.62
36932;BME280;22847;42.654;23.370;2022-08-19T12:28:38;94248.53;;;35.76;23.66
36932;BME280;22847;42.654;23.370;2022-08-19T12:31:04;94105.69;;;34.79;24.27
36932;BME280;22847;42.654;23.370;2022-08-19T12:33:30;94276.84;;;35.84;24.56
36932;BME280;22847;42.654;23.370;2022-08-19T12:36:04;94268.22;;;35.59;24.93
36932;BME280;22847;42.654;23.370;2022-08-19T12:38:31;94126.31;;;34.88;24.43
36932;BME280;22847;42.654;23.370;2022-08-19T12:40:58;94256.25;;;35.83;23.98
36932;BME280;22847;42.654;23.370;2022-08-19T12:43:23;94257.00;;;35.74;23.60
36932;BME280;22847;42.654;23.370;2022-08-19T12:45:49;94225.38;;;35.70;23.78
36932;BME280;22847;42.654;23.370;2022-08-19T12:48:14;94129.75;;;34.80;24.15
36932;BME280;22847;42.654;23.370;2022-08-19T12:50:41;94250.91;;;35.69;24.07
36932;BME280;22847;42.654;23.370;2022-08-19T12:53:07;94257.66;;;35.58;23.99
36932;BME280;22847;42.654;23.370;2022-08-19T12:55:33;94229.09;;;35.52;24.28
36932;BME280;22847;42.654;23.370;2022-08-19T12:57:58;94119.44;;;34.91;24.21
36932;BME280;22847;42.654;23.370;2022-08-19T13:00:26;94100.59;;;34.86;24.04
36932;BME280;22847;42.654;23.370;2022-08-19T13:02:52;94203.84;;;35.73;24.06
36932;BME280;22847;42.654;23.370;2022-08-19T13:05:21;94249.41;;;35.94;23.96
36932;BME280;22847;42.654;23.370;2022-08-19T13:07:49;94266.38;;;35.68;23.69
36932;BME280;22847;42.654;23.370;2022-08-19T13:10:16;94228.75;;;35.53;24.22